Share

Cavalier, ND

Cavalier (K2C8) Elev 892 ft | 48.78 °N, 97.63 °W | Change Station
Active Advisory: Flood Warning

Current weather conditions updated 9 minutes ago

Overcast
Overcast
55 °F
Feels Like 55 °F
N
22
Wind Variable Wind from West
Gusts 33 mph
Sunrise 6:31 AM
Sunset 8:28 PM
Moon Waning Gibbous

Tomorrow is forecast to be Much Warmer than today.

Pressure 29.82 in
Visibility 10.0 miles
Clouds Mostly Cloudy 3900 ft
Overcast 4600 ft
Dew Point 39 °F
Humidity 54%
Rainfall 0.00 in
Snow Depth Not available.
UV 2 out of 16
Pollen 9.40 out of 12
Air Quality Not available.
Flu Activity Sporadic
METAR K2C8 192055Z AUTO 26019G29KT 10SM BKN039 OVC046 13/04 A2982 RMK AO2

More Conditions Fewer Conditions

Pressure 29.82 in
Visibility 10.0 miles
Clouds Mostly Cloudy 3900 ft
Overcast 4600 ft
Dew Point 39 °F
Humidity 54%
Rainfall 0.00 in
Snow Depth Not available.
UV 2 out of 16
Pollen 9.40 out of 12
Air Quality Not available.
Flu Activity Sporadic
METAR K2C8 192055Z AUTO 26019G29KT 10SM BKN039 OVC046 13/04 A2982 RMK AO2

More Conditions Fewer Conditions

10-Day Weather Forecast

Almanac

Astronomy

Apr. 19, 2014 Rise Set
Actual Time 6:31 AM CDT 8:28 PM CDT
Civil Twilight 5:58 AM CDT 9:02 PM CDT
Nautical Twilight 5:16 AM CDT 9:43 PM CDT
Astronomical Twilight 4:30 AM CDT 10:30 PM CDT
Moon 12:25 AM CDT 9:40 AM CDT
Length of Visible Light 15h 03m
Length of Day
13h 56m
Tomorrow will be 3m 23s longer.
Waning Gibbous, 77% of the Moon is Illuminated
Today
Waning Gibbous
Apr 22
Last Quarter
Apr 29
New
May 6
First Quarter
May 14
Full

Today's Extremes

State Highs State Lows

Community

  • Skirting the Horizon
    Skirting the Horizon
  • Piriapolis
    Piriapolis
  • A Glorious Morning
    A Glorious Morning
  • Tender Rays Of Hope
    Tender Rays Of Hope
  • Bleeding Hearts
    Bleeding Hearts

WunderPhotos

Upload Photos

1,702,907 photos uploaded!

WunderBlogs® & News

Nearby

Snow Depth

Station Depth Elevation
No new snow has been reported.

Coastal Water Temperatures

Place Temperature
No Stations Reporting

Earthquake Activity

City Distance Mag. Time & Date
No recent earthquake activity has been reported nearby.
Minimum magnitude displayed is 2.5.

Nearby Weather Stations

There are no personal weather stations in this area.

What do you think?

We're not finished. Please let us know what you like, what you don't like, and what you are still missing.